Terminal Aerodrome Forecast
Issued by NWS

Home | Current Version | Previous Version | Text Only | Print | Product List | Glossary On
Versions: 1 2 3 4 5 6 7 8 9 10 11 12 13 14 15 16 17 18 19 20 21 22 23 24 25 26 27 28 29 30 31 32 33 34
000
FTUS45 KTWC 161700
TAFOLS
TAF
KOLS 161736Z 1618/1718 02010KT P6SM VCSH FEW060 SCT090 OVC110
     FM162000 09010KT P6SM VCSH BKN080 OVC110
      TEMPO 1622/1624 -TSRA BKN050 OVC070CB
     FM170000 14009KT P6SM -SHRA BKN040 OVC060
     FM170600 12008KT P6SM -SHRA BKN035 OVC050
      TEMPO 1706/1710 -TSRA BKN030CB OVC050
     FM171200 09007KT P6SM -SHRA BKN035 OVC050=

USA.gov is the U.S. government's official web portal to all federal, state and local government web resources and services.